Terminal Aerodrome Forecast
Issued by NWS Jackson, MS

Home | Current Version | Previous Version | Text Only | Print | Product List | Glossary On
Versions: 1 2 3 4 5 6 7 8 9 10 11 12 13 14 15 16 17 18
000
FTUS44 KJAN 282138 AAB
TAFMEI
TAF AMD
KMEI 282138Z 2822/2918 22005KT P6SM FEW050 BKN150
     FM291000 20003KT 4SM BR SCT025
     FM291400 26008KT P6SM SCT025 BKN100=

USA.gov is the U.S. government's official web portal to all federal, state and local government web resources and services.